Time,TemperatureF,DewpointF,PressureIn,WindDirection,WindDirectionDegrees,WindSpeedMPH,WindSpeedGustMPH,Humidity,HourlyPrecipIn,Conditions,Clouds,dailyrainin,SoftwareType,DateUTC
2013-01-06 00:00:00,14.9,11.2,30.20,ENE,61,0.0,1.0,85,0.00,,BKN200,0.00,VWS V14.00,2013-01-06 05:00:00,
2013-01-06 00:01:00,14.9,11.2,30.20,ENE,61,0.0,1.0,85,0.00,,BKN200,0.00,VWS V14.00,2013-01-06 05:01:00,
2013-01-06 00:03:00,14.8,11.1,30.20,ENE,61,0.0,1.0,85,0.00,,BKN200,0.00,VWS V14.00,2013-01-06 05:03:00,
2013-01-06 00:05:00,14.8,11.1,30.19,ENE,61,0.0,1.0,85,0.00,,BKN200,0.00,VWS V14.00,2013-01-06 05:05:00,
2013-01-06 00:10:00,14.8,11.1,30.19,ENE,61,0.0,1.0,85,0.00,,BKN200,0.00,VWS V14.00,2013-01-06 05:10:00,
2013-01-06 00:22:00,14.9,11.2,30.20,ENE,61,0.0,1.0,85,0.00,,BKN200,0.00,VWS V14.00,2013-01-06 05:22:00,
2013-01-06 00:27:00,14.8,11.1,30.20,ENE,61,0.0,1.0,85,0.00,,BKN200,0.00,VWS V14.00,2013-01-06 05:27:00,
2013-01-06 00:32:00,14.7,11.0,30.19,ENE,61,0.0,0.0,85,0.00,,BKN200,0.00,VWS V14.00,2013-01-06 05:32:00,
2013-01-06 00:37:00,14.6,10.9,30.19,ENE,61,0.0,0.0,85,0.00,,BKN200,0.00,VWS V14.00,2013-01-06 05:37:00,
2013-01-06 00:42:00,14.5,10.8,30.19,ENE,61,0.0,0.0,85,0.00,,BKN200,0.00,VWS V14.00,2013-01-06 05:42:00,
2013-01-06 00:47:00,14.5,10.8,30.19,ENE,61,1.0,2.0,85,0.00,,BKN200,0.00,VWS V14.00,2013-01-06 05:47:00,
2013-01-06 00:52:00,14.6,11.2,30.19,ENE,61,0.0,2.0,86,0.00,,BKN200,0.00,VWS V14.00,2013-01-06 05:52:00,
2013-01-06 00:57:00,14.5,10.8,30.18,ENE,61,0.0,2.0,85,0.00,,BKN200,0.00,VWS V14.00,2013-01-06 05:57:00,
2013-01-06 01:02:00,14.5,11.1,30.19,ENE,61,0.0,1.0,86,0.00,,BKN200,0.00,VWS V14.00,2013-01-06 06:02:00,
2013-01-06 01:07:00,14.4,11.0,30.18,ENE,61,0.0,1.0,86,0.00,,BKN200,0.00,VWS V14.00,2013-01-06 06:07:00,
2013-01-06 01:12:00,14.3,10.9,30.18,ENE,61,0.0,1.0,86,0.00,,BKN200,0.00,VWS V14.00,2013-01-06 06:12:00,
2013-01-06 01:17:00,14.3,10.9,30.18,ENE,61,0.0,1.0,86,0.00,,BKN200,0.00,VWS V14.00,2013-01-06 06:17:00,
2013-01-06 01:22:00,14.1,10.7,30.18,ENE,61,0.0,1.0,86,0.00,,BKN200,0.00,VWS V14.00,2013-01-06 06:22:00,
2013-01-06 01:27:00,14.0,10.6,30.18,ENE,61,0.0,1.0,86,0.00,,BKN200,0.00,VWS V14.00,2013-01-06 06:27:00,
2013-01-06 01:32:00,13.9,10.5,30.17,ENE,61,0.0,0.0,86,0.00,,BKN200,0.00,VWS V14.00,2013-01-06 06:32:00,
2013-01-06 01:37:00,13.8,10.4,30.18,ENE,61,0.0,1.0,86,0.00,,BKN200,0.00,VWS V14.00,2013-01-06 06:37:00,
2013-01-06 01:49:00,13.7,10.3,30.17,ENE,61,0.0,1.0,86,0.00,,BKN200,0.00,VWS V14.00,2013-01-06 06:49:00,
2013-01-06 01:54:00,13.6,10.2,30.17,ENE,61,0.0,1.0,86,0.00,,BKN200,0.00,VWS V14.00,2013-01-06 06:54:00,
2013-01-06 01:59:00,13.7,10.6,30.17,ENE,61,1.0,3.0,87,0.00,,BKN200,0.00,VWS V14.00,2013-01-06 06:59:00,
2013-01-06 02:04:00,13.9,10.8,30.17,ENE,61,0.0,3.0,87,0.00,,BKN200,0.00,VWS V14.00,2013-01-06 07:04:00,
2013-01-06 02:09:00,14.0,10.9,30.17,ENE,61,1.0,3.0,87,0.00,,BKN200,0.00,VWS V14.00,2013-01-06 07:09:00,
2013-01-06 02:14:00,14.2,11.1,30.18,ENE,61,0.0,3.0,87,0.00,,BKN200,0.00,VWS V14.00,2013-01-06 07:14:00,
2013-01-06 02:19:00,14.2,11.1,30.17,ENE,61,0.0,3.0,87,0.00,,BKN200,0.00,VWS V14.00,2013-01-06 07:19:00,
2013-01-06 02:24:00,14.3,11.1,30.17,ENE,61,0.0,3.0,87,0.00,,BKN200,0.00,VWS V14.00,2013-01-06 07:24:00,
2013-01-06 02:29:00,14.4,11.2,30.17,ENE,61,0.0,0.0,87,0.00,,BKN200,0.00,VWS V14.00,2013-01-06 07:29:00,
2013-01-06 02:34:00,14.4,11.2,30.18,ENE,61,0.0,0.0,87,0.00,,BKN200,0.00,VWS V14.00,2013-01-06 07:34:00,
2013-01-06 02:39:00,14.5,11.3,30.17,ENE,61,0.0,0.0,87,0.00,,BKN200,0.00,VWS V14.00,2013-01-06 07:39:00,
2013-01-06 02:44:00,14.6,11.4,30.17,ENE,61,0.0,0.0,87,0.00,,BKN200,0.00,VWS V14.00,2013-01-06 07:44:00,
2013-01-06 02:49:00,15.0,11.8,30.17,ENE,61,0.0,1.0,87,0.00,,BKN200,0.00,VWS V14.00,2013-01-06 07:49:00,
2013-01-06 02:54:00,15.0,11.8,30.17,ENE,61,0.0,1.0,87,0.00,,BKN200,0.00,VWS V14.00,2013-01-06 07:54:00,
2013-01-06 02:59:00,15.1,11.9,30.17,ENE,61,1.0,1.0,87,0.00,,BKN200,0.00,VWS V14.00,2013-01-06 07:59:00,
2013-01-06 03:04:00,15.3,12.1,30.16,ENE,61,0.0,2.0,87,0.00,,BKN200,0.00,VWS V14.00,2013-01-06 08:04:00,
2013-01-06 03:09:00,15.4,12.2,30.16,ENE,61,0.0,2.0,87,0.00,,BKN200,0.00,VWS V14.00,2013-01-06 08:09:00,
2013-01-06 03:14:00,15.5,12.3,30.15,ENE,61,0.0,2.0,87,0.00,,BKN200,0.00,VWS V14.00,2013-01-06 08:14:00,
2013-01-06 03:19:00,15.6,12.4,30.15,ENE,61,0.0,2.0,87,0.00,,BKN200,0.00,VWS V14.00,2013-01-06 08:19:00,
2013-01-06 03:24:00,15.7,12.5,30.13,ENE,61,2.0,2.0,87,0.00,,BKN200,0.00,VWS V14.00,2013-01-06 08:24:00,
2013-01-06 03:29:00,15.9,12.7,30.12,ENE,61,0.0,0.0,87,0.00,,BKN200,0.00,VWS V14.00,2013-01-06 08:29:00,
2013-01-06 03:34:00,16.1,12.9,30.12,ENE,61,0.0,0.0,87,0.00,,BKN200,0.00,VWS V14.00,2013-01-06 08:34:00,
2013-01-06 03:39:00,16.3,13.1,30.12,ENE,61,2.0,2.0,87,0.00,,BKN200,0.00,VWS V14.00,2013-01-06 08:39:00,
2013-01-06 03:44:00,16.5,13.3,30.12,ENE,61,0.0,2.0,87,0.00,,BKN200,0.00,VWS V14.00,2013-01-06 08:44:00,
2013-01-06 03:49:00,16.6,13.4,30.12,ENE,61,1.0,2.0,87,0.00,,BKN200,0.00,VWS V14.00,2013-01-06 08:49:00,
2013-01-06 03:53:00,16.8,13.6,30.11,ENE,61,0.0,2.0,87,0.00,,BKN200,0.00,VWS V14.00,2013-01-06 08:53:00,
2013-01-06 03:59:00,16.8,13.6,30.11,ENE,61,0.0,0.0,87,0.00,,BKN200,0.00,VWS V14.00,2013-01-06 08:59:00,
2013-01-06 04:04:00,17.0,13.8,30.11,ENE,61,2.0,3.0,87,0.00,,BKN200,0.00,VWS V14.00,2013-01-06 09:04:00,
2013-01-06 04:09:00,17.3,14.4,30.11,ENE,61,0.0,3.0,88,0.00,,BKN200,0.00,VWS V14.00,2013-01-06 09:09:00,
2013-01-06 04:14:00,17.4,14.2,30.12,ENE,61,0.0,3.0,87,0.00,,BKN200,0.00,VWS V14.00,2013-01-06 09:14:00,
2013-01-06 04:19:00,17.5,14.6,30.11,ENE,61,0.0,3.0,88,0.00,,BKN200,0.00,VWS V14.00,2013-01-06 09:19:00,
2013-01-06 04:24:00,17.5,14.3,30.10,ENE,61,0.0,3.0,87,0.00,,BKN200,0.00,VWS V14.00,2013-01-06 09:24:00,
2013-01-06 04:29:00,17.6,14.4,30.10,ENE,61,0.0,0.0,87,0.00,,BKN200,0.00,VWS V14.00,2013-01-06 09:29:00,
2013-01-06 04:33:00,17.6,14.4,30.09,ENE,61,0.0,0.0,87,0.00,,BKN200,0.00,VWS V14.00,2013-01-06 09:33:00,
2013-01-06 04:38:00,17.7,14.5,30.09,ENE,61,0.0,1.0,87,0.00,,BKN200,0.00,VWS V14.00,2013-01-06 09:38:00,
2013-01-06 04:43:00,17.8,14.6,30.09,ENE,61,0.0,1.0,87,0.00,,BKN200,0.00,VWS V14.00,2013-01-06 09:43:00,
2013-01-06 04:48:00,17.9,14.7,30.08,ENE,61,0.0,1.0,87,0.00,,BKN200,0.00,VWS V14.00,2013-01-06 09:48:00,
2013-01-06 04:53:00,18.1,14.9,30.08,ENE,61,0.0,2.0,87,0.00,,BKN200,0.00,VWS V14.00,2013-01-06 09:53:00,
2013-01-06 04:58:00,18.2,15.0,30.08,ENE,61,0.0,0.0,87,0.00,,BKN200,0.00,VWS V14.00,2013-01-06 09:58:00,
2013-01-06 05:03:00,18.3,15.1,30.08,ENE,61,0.0,1.0,87,0.00,,BKN200,0.00,VWS V14.00,2013-01-06 10:03:00,
2013-01-06 05:08:00,18.4,15.2,30.07,ENE,61,0.0,1.0,87,0.00,,BKN200,0.00,VWS V14.00,2013-01-06 10:08:00,
2013-01-06 05:13:00,18.5,15.3,30.07,ENE,61,1.0,2.0,87,0.00,,BKN200,0.00,VWS V14.00,2013-01-06 10:13:00,
2013-01-06 05:18:00,18.6,15.4,30.07,ENE,61,0.0,2.0,87,0.00,,BKN200,0.00,VWS V14.00,2013-01-06 10:18:00,
2013-01-06 05:23:00,18.6,15.4,30.06,ENE,61,0.0,2.0,87,0.00,,BKN200,0.00,VWS V14.00,2013-01-06 10:23:00,
2013-01-06 05:28:00,18.7,15.7,30.06,ENE,61,1.0,1.0,88,0.00,,BKN200,0.00,VWS V14.00,2013-01-06 10:28:00,
2013-01-06 05:33:00,18.8,15.8,30.06,ENE,61,1.0,2.0,88,0.00,,BKN200,0.00,VWS V14.00,2013-01-06 10:33:00,
2013-01-06 05:38:00,19.0,16.0,30.06,ENE,61,0.0,2.0,88,0.00,,BKN200,0.00,VWS V14.00,2013-01-06 10:38:00,
2013-01-06 05:43:00,19.0,16.0,30.05,ENE,61,1.0,2.0,88,0.00,,BKN200,0.00,VWS V14.00,2013-01-06 10:43:00,
2013-01-06 05:48:00,19.1,16.1,30.06,ENE,61,1.0,2.0,88,0.00,,BKN200,0.00,VWS V14.00,2013-01-06 10:48:00,
2013-01-06 05:53:00,19.2,16.2,30.05,ENE,61,0.0,2.0,88,0.00,,BKN200,0.00,VWS V14.00,2013-01-06 10:53:00,
2013-01-06 05:58:00,19.3,16.1,30.05,ENE,61,0.0,0.0,87,0.00,,BKN200,0.00,VWS V14.00,2013-01-06 10:58:00,
2013-01-06 06:03:00,19.3,16.1,30.05,ENE,61,0.0,0.0,87,0.00,,OVC200,0.00,VWS V14.00,2013-01-06 11:03:00,
2013-01-06 06:08:00,19.4,16.2,30.05,ENE,61,0.0,0.0,87,0.00,,OVC200,0.00,VWS V14.00,2013-01-06 11:08:00,
2013-01-06 06:13:00,19.4,16.2,30.05,ENE,61,1.0,2.0,87,0.00,,OVC200,0.00,VWS V14.00,2013-01-06 11:13:00,
2013-01-06 06:18:00,19.4,16.2,30.05,ENE,61,1.0,2.0,87,0.00,,OVC200,0.00,VWS V14.00,2013-01-06 11:18:00,
2013-01-06 06:23:00,19.5,16.3,30.05,ENE,61,1.0,2.0,87,0.00,,OVC200,0.00,VWS V14.00,2013-01-06 11:23:00,
2013-01-06 06:28:00,19.6,16.4,30.05,ENE,61,1.0,1.0,87,0.00,,OVC200,0.00,VWS V14.00,2013-01-06 11:28:00,
2013-01-06 06:33:00,19.8,16.6,30.04,ENE,61,0.0,2.0,87,0.00,,OVC200,0.00,VWS V14.00,2013-01-06 11:33:00,
2013-01-06 06:38:00,19.8,16.8,30.04,ENE,61,0.0,2.0,88,0.00,,OVC200,0.00,VWS V14.00,2013-01-06 11:38:00,
2013-01-06 06:43:00,20.0,16.8,30.04,ENE,61,0.0,2.0,87,0.00,,OVC200,0.00,VWS V14.00,2013-01-06 11:43:00,
2013-01-06 06:48:00,20.0,16.8,30.04,ENE,61,0.0,2.0,87,0.00,,OVC200,0.00,VWS V14.00,2013-01-06 11:48:00,
2013-01-06 06:53:00,20.1,17.1,30.04,ENE,61,0.0,2.0,88,0.00,,OVC200,0.00,VWS V14.00,2013-01-06 11:53:00,
2013-01-06 06:58:00,20.1,16.9,30.04,ENE,61,1.0,1.0,87,0.00,,OVC200,0.00,VWS V14.00,2013-01-06 11:58:00,
2013-01-06 07:03:00,20.2,17.0,30.04,ENE,61,0.0,2.0,87,0.00,,OVC200,0.00,VWS V14.00,2013-01-06 12:03:00,
2013-01-06 07:08:00,20.4,17.2,30.03,ENE,61,0.0,2.0,87,0.00,,OVC200,0.00,VWS V14.00,2013-01-06 12:08:00,
2013-01-06 07:13:00,20.5,17.0,30.03,ENE,61,0.0,2.0,86,0.00,,OVC200,0.00,VWS V14.00,2013-01-06 12:13:00,
2013-01-06 07:18:00,20.6,17.1,30.03,ENE,61,1.0,2.0,86,0.00,,OVC200,0.00,VWS V14.00,2013-01-06 12:18:00,
2013-01-06 07:23:00,20.7,17.2,30.02,ENE,61,0.0,2.0,86,0.00,,OVC200,0.00,VWS V14.00,2013-01-06 12:23:00,
2013-01-06 07:28:00,20.7,17.2,30.02,ENE,61,0.0,2.0,86,0.00,,OVC200,0.00,VWS V14.00,2013-01-06 12:28:00,
2013-01-06 07:33:00,20.8,17.3,30.02,ENE,61,0.0,2.0,86,0.00,,OVC200,0.00,VWS V14.00,2013-01-06 12:33:00,
2013-01-06 07:38:00,20.8,17.3,30.03,SW,229,2.0,4.0,86,0.00,,OVC200,0.00,VWS V14.00,2013-01-06 12:38:00,
2013-01-06 07:43:00,20.7,17.5,30.03,SW,225,0.0,4.0,87,0.00,,OVC200,0.00,VWS V14.00,2013-01-06 12:43:00,
2013-01-06 07:48:00,20.6,17.4,30.03,SW,225,1.0,4.0,87,0.00,,OVC200,0.00,VWS V14.00,2013-01-06 12:48:00,
2013-01-06 07:53:00,20.4,17.4,30.02,SW,227,2.0,4.0,88,0.00,,OVC200,0.00,VWS V14.00,2013-01-06 12:53:00,
2013-01-06 07:58:00,20.4,17.4,30.02,SW,227,0.0,2.0,88,0.00,,OVC200,0.00,VWS V14.00,2013-01-06 12:58:00,
2013-01-06 08:03:00,20.4,17.7,30.02,SW,227,0.0,2.0,89,0.00,,,0.00,VWS V14.00,2013-01-06 13:03:00,
2013-01-06 08:08:00,20.4,17.7,30.02,SW,227,0.0,2.0,89,0.00,,,0.00,VWS V14.00,2013-01-06 13:08:00,
2013-01-06 08:13:00,20.4,17.7,30.02,SW,227,0.0,2.0,89,0.00,,,0.00,VWS V14.00,2013-01-06 13:13:00,
2013-01-06 08:18:00,20.5,18.0,30.01,SW,227,0.0,2.0,90,0.00,,,0.00,VWS V14.00,2013-01-06 13:18:00,
2013-01-06 08:23:00,20.6,18.1,30.01,SW,227,0.0,2.0,90,0.00,,,0.00,VWS V14.00,2013-01-06 13:23:00,
2013-01-06 08:28:00,20.6,18.1,30.01,SW,227,1.0,1.0,90,0.00,,,0.00,VWS V14.00,2013-01-06 13:28:00,
2013-01-06 08:33:00,20.7,18.2,30.01,SW,227,0.0,2.0,90,0.00,,,0.00,VWS V14.00,2013-01-06 13:33:00,
2013-01-06 08:38:00,20.7,18.2,30.02,SW,227,0.0,2.0,90,0.00,,,0.00,VWS V14.00,2013-01-06 13:38:00,
2013-01-06 08:43:00,20.8,18.3,30.01,SW,227,0.0,3.0,90,0.00,,,0.00,VWS V14.00,2013-01-06 13:43:00,
2013-01-06 08:48:00,21.0,18.5,30.01,SW,227,2.0,3.0,90,0.00,,,0.00,VWS V14.00,2013-01-06 13:48:00,
2013-01-06 08:53:00,21.1,18.6,30.01,SW,227,0.0,3.0,90,0.00,,,0.00,VWS V14.00,2013-01-06 13:53:00,
2013-01-06 08:58:00,21.3,18.8,30.01,SW,227,0.0,0.0,90,0.00,,,0.00,VWS V14.00,2013-01-06 13:58:00,
2013-01-06 09:03:00,21.5,19.0,30.00,SW,227,0.0,0.0,90,0.00,,,0.00,VWS V14.00,2013-01-06 14:03:00,
2013-01-06 09:08:00,21.7,19.2,30.01,SW,227,0.0,1.0,90,0.00,,,0.00,VWS V14.00,2013-01-06 14:08:00,
2013-01-06 09:13:00,21.8,19.3,30.01,SW,227,0.0,1.0,90,0.00,,,0.00,VWS V14.00,2013-01-06 14:13:00,
2013-01-06 09:18:00,22.1,19.4,30.01,SW,227,0.0,1.0,89,0.00,,,0.00,VWS V14.00,2013-01-06 14:18:00,
2013-01-06 09:23:00,22.3,19.6,30.01,SW,227,1.0,1.0,89,0.00,,,0.00,VWS V14.00,2013-01-06 14:23:00,
2013-01-06 09:28:00,22.5,19.8,30.01,SW,227,0.0,0.0,89,0.00,,,0.00,VWS V14.00,2013-01-06 14:28:00,
2013-01-06 09:33:00,22.5,19.8,30.01,SW,227,0.0,1.0,89,0.00,,,0.00,VWS V14.00,2013-01-06 14:33:00,
2013-01-06 09:38:00,22.6,19.9,30.01,SW,227,0.0,1.0,89,0.00,,,0.00,VWS V14.00,2013-01-06 14:38:00,
2013-01-06 09:43:00,22.9,20.1,30.01,SW,227,0.0,1.0,89,0.00,,,0.00,VWS V14.00,2013-01-06 14:43:00,
2013-01-06 09:48:00,23.0,20.0,30.00,SW,227,1.0,1.0,88,0.00,,,0.00,VWS V14.00,2013-01-06 14:48:00,
2013-01-06 09:53:00,23.1,20.1,30.00,SW,227,2.0,2.0,88,0.00,,,0.00,VWS V14.00,2013-01-06 14:53:00,
2013-01-06 09:58:00,23.2,20.2,30.00,SW,227,0.0,0.0,88,0.00,,,0.00,VWS V14.00,2013-01-06 14:58:00,
2013-01-06 10:03:00,23.3,20.3,29.99,SW,227,0.0,2.0,88,0.00,,,0.00,VWS V14.00,2013-01-06 15:03:00,
2013-01-06 10:08:00,23.5,20.5,29.99,SW,227,0.0,2.0,88,0.00,,,0.00,VWS V14.00,2013-01-06 15:08:00,
2013-01-06 10:13:00,24.0,21.0,29.99,SW,227,0.0,2.0,88,0.00,,,0.00,VWS V14.00,2013-01-06 15:13:00,
2013-01-06 10:18:00,24.3,21.3,29.99,SW,227,0.0,2.0,88,0.00,,,0.00,VWS V14.00,2013-01-06 15:18:00,
2013-01-06 10:23:00,24.7,21.4,29.98,SW,227,0.0,2.0,87,0.00,,,0.00,VWS V14.00,2013-01-06 15:23:00,
2013-01-06 10:28:00,24.9,21.6,29.98,SW,227,0.0,1.0,87,0.00,,,0.00,VWS V14.00,2013-01-06 15:28:00,
2013-01-06 10:33:00,25.2,21.9,29.98,SW,227,0.0,1.0,87,0.00,,,0.00,VWS V14.00,2013-01-06 15:33:00,
2013-01-06 10:38:00,25.4,21.8,29.98,SW,227,2.0,2.0,86,0.00,,,0.00,VWS V14.00,2013-01-06 15:38:00,
2013-01-06 10:43:00,25.8,22.2,29.96,SW,227,0.0,2.0,86,0.00,,,0.00,VWS V14.00,2013-01-06 15:43:00,
2013-01-06 10:48:00,25.2,21.3,29.96,SW,227,0.0,2.0,85,0.00,,,0.00,VWS V14.00,2013-01-06 15:48:00,
2013-01-06 10:53:00,25.1,21.5,29.96,SW,227,0.0,2.0,86,0.00,,,0.00,VWS V14.00,2013-01-06 15:53:00,
2013-01-06 10:58:00,25.5,21.9,29.95,SW,227,0.0,0.0,86,0.00,,,0.00,VWS V14.00,2013-01-06 15:58:00,
2013-01-06 11:03:00,26.1,22.2,29.94,SW,227,2.0,2.0,85,0.00,,,0.00,VWS V14.00,2013-01-06 16:03:00,
2013-01-06 11:08:00,26.5,22.6,29.94,South,179,2.0,2.0,85,0.00,,,0.00,VWS V14.00,2013-01-06 16:08:00,
2013-01-06 11:13:00,27.7,23.8,29.94,South,180,3.0,4.0,85,0.00,,,0.00,VWS V14.00,2013-01-06 16:13:00,
2013-01-06 11:18:00,28.3,24.1,29.93,South,180,2.0,4.0,84,0.00,,,0.00,VWS V14.00,2013-01-06 16:18:00,
2013-01-06 11:23:00,29.0,24.5,29.93,South,181,1.0,4.0,83,0.00,,,0.00,VWS V14.00,2013-01-06 16:23:00,
2013-01-06 11:28:00,29.3,24.8,29.93,SW,225,2.0,3.0,83,0.00,,,0.00,VWS V14.00,2013-01-06 16:28:00,
2013-01-06 11:33:00,29.2,24.7,29.92,West,261,2.0,7.0,83,0.00,,,0.00,VWS V14.00,2013-01-06 16:33:00,
2013-01-06 11:38:00,29.0,24.5,29.92,South,189,4.0,7.0,83,0.00,,,0.00,VWS V14.00,2013-01-06 16:38:00,
2013-01-06 11:43:00,29.2,24.7,29.91,SW,215,2.0,7.0,83,0.00,,,0.00,VWS V14.00,2013-01-06 16:43:00,
2013-01-06 11:48:00,29.6,25.1,29.91,WSW,257,7.0,7.0,83,0.00,,,0.00,VWS V14.00,2013-01-06 16:48:00,
2013-01-06 11:53:00,30.1,25.6,29.91,South,188,3.0,7.0,83,0.00,,,0.00,VWS V14.00,2013-01-06 16:53:00,
2013-01-06 11:58:00,30.1,25.3,29.91,SSW,200,2.0,2.0,82,0.00,,,0.00,VWS V14.00,2013-01-06 16:58:00,
2013-01-06 12:03:00,30.6,26.1,29.90,West,263,4.0,7.0,83,0.00,,OVC110,0.00,VWS V14.00,2013-01-06 17:03:00,
2013-01-06 12:08:00,31.1,26.0,29.90,West,279,1.0,7.0,81,0.00,,OVC110,0.00,VWS V14.00,2013-01-06 17:08:00,
2013-01-06 12:13:00,31.1,26.0,29.90,WSW,241,1.0,8.0,81,0.00,,OVC110,0.00,VWS V14.00,2013-01-06 17:13:00,
2013-01-06 12:18:00,31.5,26.4,29.90,WNW,292,2.0,8.0,81,0.00,,OVC110,0.00,VWS V14.00,2013-01-06 17:18:00,
2013-01-06 12:23:00,31.7,25.9,29.90,WSW,254,4.0,8.0,79,0.02,,OVC110,0.02,VWS V14.00,2013-01-06 17:23:00,
2013-01-06 12:28:00,30.8,25.1,29.90,West,281,3.0,4.0,79,0.02,,OVC110,0.02,VWS V14.00,2013-01-06 17:28:00,
2013-01-06 12:33:00,30.6,25.2,29.90,West,281,0.0,5.0,80,0.03,,OVC110,0.03,VWS V14.00,2013-01-06 17:33:00,
2013-01-06 12:38:00,30.8,25.4,29.90,West,271,3.0,7.0,80,0.03,,OVC110,0.03,VWS V14.00,2013-01-06 17:38:00,
2013-01-06 12:43:00,31.1,25.4,29.90,SSW,212,2.0,7.0,79,0.03,,OVC110,0.03,VWS V14.00,2013-01-06 17:43:00,
2013-01-06 12:48:00,31.4,25.4,29.90,South,181,3.0,8.0,78,0.03,,OVC110,0.03,VWS V14.00,2013-01-06 17:48:00,
2013-01-06 12:53:00,31.1,25.0,29.90,South,184,4.0,9.0,78,0.03,,OVC110,0.03,VWS V14.00,2013-01-06 17:53:00,
2013-01-06 12:58:00,30.9,24.5,29.89,SW,221,4.0,6.0,77,0.04,,OVC110,0.04,VWS V14.00,2013-01-06 17:58:00,
2013-01-06 13:03:00,31.6,25.5,29.89,WNW,295,3.0,6.0,78,0.04,,OVC110,0.04,VWS V14.00,2013-01-06 18:03:00,
2013-01-06 13:08:00,31.5,24.8,29.89,SW,215,5.0,6.0,76,0.04,,OVC110,0.04,VWS V14.00,2013-01-06 18:08:00,
2013-01-06 13:13:00,31.2,24.5,29.89,SSW,206,2.0,6.0,76,0.05,,OVC110,0.05,VWS V14.00,2013-01-06 18:13:00,
2013-01-06 13:18:00,31.4,25.0,29.89,WSW,243,6.0,6.0,77,0.05,,OVC110,0.05,VWS V14.00,2013-01-06 18:18:00,
2013-01-06 13:23:00,31.7,25.0,29.89,WSW,238,5.0,7.0,76,0.05,,OVC110,0.05,VWS V14.00,2013-01-06 18:23:00,
2013-01-06 13:28:00,31.9,24.9,29.89,NE,53,0.0,0.0,75,0.03,,OVC110,0.05,VWS V14.00,2013-01-06 18:28:00,
2013-01-06 13:33:00,31.7,24.7,29.89,WSW,249,4.0,5.0,75,0.03,,OVC110,0.05,VWS V14.00,2013-01-06 18:33:00,
2013-01-06 13:38:00,31.8,24.8,29.89,North,360,1.0,6.0,75,0.04,,OVC110,0.06,VWS V14.00,2013-01-06 18:38:00,
2013-01-06 13:43:00,31.9,24.6,29.88,West,263,2.0,6.0,74,0.04,,OVC110,0.06,VWS V14.00,2013-01-06 18:43:00,
2013-01-06 13:48:00,32.2,24.9,29.88,West,280,3.0,6.0,74,0.04,,OVC110,0.06,VWS V14.00,2013-01-06 18:48:00,
2013-01-06 13:53:00,32.5,24.8,29.88,West,272,1.0,6.0,73,0.04,,OVC110,0.06,VWS V14.00,2013-01-06 18:53:00,
2013-01-06 13:58:00,32.6,24.2,29.88,West,271,2.0,5.0,71,0.03,,OVC110,0.07,VWS V14.00,2013-01-06 18:58:00,
2013-01-06 14:03:00,32.6,24.6,29.88,NW,305,3.0,7.0,72,0.03,,OVC070,0.07,VWS V14.00,2013-01-06 19:03:00,
2013-01-06 14:08:00,32.7,24.7,29.88,West,278,3.0,7.0,72,0.03,,OVC070,0.07,VWS V14.00,2013-01-06 19:08:00,
2013-01-06 14:13:00,32.8,24.5,29.88,West,271,4.0,7.0,71,0.03,,OVC070,0.07,VWS V14.00,2013-01-06 19:13:00,
2013-01-06 14:18:00,33.0,24.3,29.88,West,280,4.0,7.0,70,0.03,,OVC070,0.07,VWS V14.00,2013-01-06 19:18:00,
2013-01-06 14:23:00,33.1,24.4,29.88,West,260,4.0,7.0,70,0.03,,OVC070,0.07,VWS V14.00,2013-01-06 19:23:00,
2013-01-06 14:28:00,33.1,24.4,29.88,WSW,244,2.0,4.0,70,0.02,,OVC070,0.07,VWS V14.00,2013-01-06 19:28:00,
2013-01-06 14:33:00,33.1,24.7,29.89,WNW,296,0.0,6.0,71,0.02,,OVC070,0.07,VWS V14.00,2013-01-06 19:33:00,
2013-01-06 14:38:00,33.3,24.9,29.88,West,264,0.0,6.0,71,0.03,,OVC070,0.08,VWS V14.00,2013-01-06 19:38:00,
2013-01-06 14:43:00,33.5,24.8,29.88,West,269,0.0,6.0,70,0.03,,OVC070,0.08,VWS V14.00,2013-01-06 19:43:00,
2013-01-06 14:48:00,33.7,25.0,29.89,West,277,1.0,6.0,70,0.03,,SCT060,0.08,VWS V14.00,2013-01-06 19:48:00,
2013-01-06 14:53:00,33.4,24.7,29.89,West,259,1.0,6.0,70,0.03,,SCT060,0.08,VWS V14.00,2013-01-06 19:53:00,
2013-01-06 14:58:00,33.4,24.7,29.89,West,259,1.0,2.0,70,0.01,,SCT060,0.08,VWS V14.00,2013-01-06 19:58:00,
2013-01-06 15:03:00,33.2,24.8,29.89,West,263,0.0,2.0,71,0.02,,SCT060,0.09,VWS V14.00,2013-01-06 20:03:00,
2013-01-06 15:08:00,33.0,25.0,29.89,West,263,0.0,2.0,72,0.02,,SCT060,0.09,VWS V14.00,2013-01-06 20:08:00,
2013-01-06 15:11:00,33.0,25.0,29.89,West,263,1.0,3.0,72,0.02,,SCT060,0.09,VWS V14.00,2013-01-06 20:11:00,
2013-01-06 15:13:00,33.0,25.0,29.88,West,263,2.0,3.0,72,0.02,,SCT060,0.09,VWS V14.00,2013-01-06 20:13:00,
2013-01-06 15:18:00,32.4,25.0,29.89,West,276,3.0,3.0,74,0.02,,SCT060,0.09,VWS V14.00,2013-01-06 20:18:00,
2013-01-06 15:23:00,32.5,24.8,29.88,West,276,0.0,3.0,73,0.02,,SCT060,0.09,VWS V14.00,2013-01-06 20:23:00,
2013-01-06 15:28:00,31.8,25.1,29.88,West,276,0.0,0.0,76,0.02,,SCT060,0.09,VWS V14.00,2013-01-06 20:28:00,
2013-01-06 15:33:00,31.6,24.9,29.88,West,276,0.0,1.0,76,0.02,,SCT060,0.09,VWS V14.00,2013-01-06 20:33:00,
2013-01-06 15:38:00,30.7,24.7,29.88,West,276,0.0,1.0,78,0.02,,SCT060,0.09,VWS V14.00,2013-01-06 20:38:00,
2013-01-06 15:43:00,30.3,24.9,29.88,West,276,0.0,1.0,80,0.02,,SCT060,0.09,VWS V14.00,2013-01-06 20:43:00,
2013-01-06 15:48:00,29.6,24.5,29.87,West,276,0.0,1.0,81,0.02,,SCT060,0.09,VWS V14.00,2013-01-06 20:48:00,
2013-01-06 16:00:00,29.3,24.2,29.87,West,276,0.0,1.0,81,0.02,,SCT060,0.09,VWS V14.00,2013-01-06 21:00:00,
2013-01-06 16:05:00,28.3,23.5,29.88,West,276,1.0,1.0,82,0.02,,SCT250,0.09,VWS V14.00,2013-01-06 21:05:00,
2013-01-06 16:10:00,28.0,23.8,29.88,West,276,0.0,1.0,84,0.02,,SCT250,0.09,VWS V14.00,2013-01-06 21:10:00,
2013-01-06 16:15:00,27.6,23.7,29.88,West,276,0.0,1.0,85,0.02,,SCT250,0.09,VWS V14.00,2013-01-06 21:15:00,
2013-01-06 16:20:00,27.3,23.7,29.88,West,276,0.0,1.0,86,0.02,,SCT250,0.09,VWS V14.00,2013-01-06 21:20:00,
2013-01-06 16:25:00,26.9,23.6,29.88,West,276,0.0,1.0,87,0.02,,SCT250,0.09,VWS V14.00,2013-01-06 21:25:00,
2013-01-06 16:30:00,26.6,23.3,29.88,West,276,0.0,0.0,87,0.00,,SCT250,0.09,VWS V14.00,2013-01-06 21:30:00,
2013-01-06 16:35:00,26.1,22.8,29.88,West,276,0.0,0.0,87,0.00,,SCT250,0.09,VWS V14.00,2013-01-06 21:35:00,
2013-01-06 16:40:00,26.2,23.4,29.88,West,276,0.0,0.0,89,0.00,,SCT250,0.09,VWS V14.00,2013-01-06 21:40:00,
2013-01-06 16:45:00,25.9,22.8,29.88,West,276,0.0,0.0,88,0.00,,SCT250,0.09,VWS V14.00,2013-01-06 21:45:00,
2013-01-06 16:50:00,25.5,22.7,29.88,West,276,0.0,0.0,89,0.00,,SCT250,0.09,VWS V14.00,2013-01-06 21:50:00,
2013-01-06 16:55:00,25.2,22.4,29.88,West,276,0.0,0.0,89,0.00,,SCT250,0.09,VWS V14.00,2013-01-06 21:55:00,
2013-01-06 17:00:00,24.7,21.9,29.88,West,276,0.0,0.0,89,0.00,,SCT120,0.09,VWS V14.00,2013-01-06 22:00:00,
2013-01-06 17:05:00,24.6,22.1,29.89,West,276,0.0,0.0,90,0.00,,SCT120,0.09,VWS V14.00,2013-01-06 22:05:00,
2013-01-06 17:10:00,24.5,22.0,29.89,West,276,0.0,0.0,90,0.00,,SCT120,0.09,VWS V14.00,2013-01-06 22:10:00,
2013-01-06 17:15:00,24.2,21.7,29.89,West,276,0.0,0.0,90,0.00,,SCT120,0.09,VWS V14.00,2013-01-06 22:15:00,
2013-01-06 17:20:00,24.0,21.5,29.89,West,276,0.0,0.0,90,0.00,,SCT120,0.09,VWS V14.00,2013-01-06 22:20:00,
2013-01-06 17:25:00,23.7,21.2,29.89,West,276,1.0,2.0,90,0.00,,SCT120,0.09,VWS V14.00,2013-01-06 22:25:00,
2013-01-06 17:30:00,23.7,21.5,29.90,West,276,0.0,0.0,91,0.00,,SCT120,0.09,VWS V14.00,2013-01-06 22:30:00,
2013-01-06 17:35:00,23.6,21.4,29.90,West,276,0.0,0.0,91,0.00,,SCT120,0.09,VWS V14.00,2013-01-06 22:35:00,
2013-01-06 17:40:00,23.6,21.4,29.90,West,276,0.0,0.0,91,0.00,,SCT120,0.09,VWS V14.00,2013-01-06 22:40:00,
2013-01-06 17:45:00,23.8,21.6,29.90,West,276,0.0,0.0,91,0.00,,SCT120,0.09,VWS V14.00,2013-01-06 22:45:00,
2013-01-06 17:50:00,24.0,22.0,29.90,West,276,0.0,0.0,92,0.00,,SCT120,0.09,VWS V14.00,2013-01-06 22:50:00,
2013-01-06 17:55:00,24.2,22.2,29.90,West,276,0.0,0.0,92,0.00,,SCT120,0.09,VWS V14.00,2013-01-06 22:55:00,
2013-01-06 18:00:00,24.2,22.2,29.90,West,276,1.0,1.0,92,0.00,,OVC100,0.09,VWS V14.00,2013-01-06 23:00:00,
2013-01-06 18:05:00,24.5,22.5,29.90,West,276,0.0,1.0,92,0.00,,OVC100,0.09,VWS V14.00,2013-01-06 23:05:00,
2013-01-06 18:10:00,24.7,22.7,29.90,West,276,0.0,1.0,92,0.00,,OVC100,0.09,VWS V14.00,2013-01-06 23:10:00,
2013-01-06 18:15:00,24.9,22.9,29.90,West,276,0.0,1.0,92,0.00,,OVC100,0.09,VWS V14.00,2013-01-06 23:15:00,
2013-01-06 18:20:00,24.8,22.5,29.90,West,276,0.0,1.0,91,0.00,,OVC100,0.09,VWS V14.00,2013-01-06 23:20:00,
2013-01-06 18:25:00,24.9,22.6,29.90,West,276,0.0,1.0,91,0.00,,OVC100,0.09,VWS V14.00,2013-01-06 23:25:00,
2013-01-06 18:30:00,25.0,22.8,29.90,West,276,0.0,0.0,91,0.00,,OVC100,0.09,VWS V14.00,2013-01-06 23:30:00,
2013-01-06 18:35:00,25.1,22.9,29.90,West,276,0.0,0.0,91,0.00,,OVC100,0.09,VWS V14.00,2013-01-06 23:35:00,
2013-01-06 18:40:00,25.2,23.0,29.90,West,276,0.0,0.0,91,0.00,,OVC100,0.09,VWS V14.00,2013-01-06 23:40:00,
2013-01-06 18:45:00,25.2,23.0,29.90,West,276,0.0,1.0,91,0.00,,OVC100,0.09,VWS V14.00,2013-01-06 23:45:00,
2013-01-06 18:50:00,25.0,22.5,29.90,West,276,0.0,1.0,90,0.00,,OVC100,0.09,VWS V14.00,2013-01-06 23:50:00,
2013-01-06 18:55:00,24.9,22.4,29.90,West,276,0.0,1.0,90,0.00,,OVC100,0.09,VWS V14.00,2013-01-06 23:55:00,
2013-01-06 19:00:00,24.8,22.3,29.90,West,276,0.0,0.0,90,0.00,,OVC090,0.09,VWS V14.00,2013-01-07 00:00:00,
2013-01-06 19:05:00,24.7,22.5,29.90,West,276,0.0,0.0,91,0.00,,OVC090,0.09,VWS V14.00,2013-01-07 00:05:00,
2013-01-06 19:10:00,24.7,22.5,29.90,West,276,0.0,0.0,91,0.00,,OVC090,0.09,VWS V14.00,2013-01-07 00:10:00,
2013-01-06 19:15:00,24.7,22.5,29.90,West,276,0.0,0.0,91,0.00,,OVC090,0.09,VWS V14.00,2013-01-07 00:15:00,
2013-01-06 19:20:00,24.7,22.5,29.90,West,276,0.0,0.0,91,0.00,,OVC090,0.09,VWS V14.00,2013-01-07 00:20:00,
2013-01-06 19:25:00,24.7,22.5,29.91,West,276,0.0,0.0,91,0.00,,OVC090,0.09,VWS V14.00,2013-01-07 00:25:00,
2013-01-06 19:30:00,24.7,22.5,29.91,West,276,0.0,0.0,91,0.00,,OVC090,0.09,VWS V14.00,2013-01-07 00:30:00,
2013-01-06 19:35:00,24.7,22.5,29.91,West,276,0.0,0.0,91,0.00,,OVC090,0.09,VWS V14.00,2013-01-07 00:35:00,
2013-01-06 19:40:00,24.8,22.5,29.91,West,276,0.0,0.0,91,0.00,,OVC090,0.09,VWS V14.00,2013-01-07 00:40:00,
2013-01-06 19:45:00,24.8,22.5,29.91,West,276,0.0,0.0,91,0.00,,OVC090,0.09,VWS V14.00,2013-01-07 00:45:00,
2013-01-06 19:50:00,24.8,22.8,29.91,West,276,0.0,0.0,92,0.00,,OVC090,0.09,VWS V14.00,2013-01-07 00:50:00,
2013-01-06 19:55:00,24.9,22.9,29.91,West,276,0.0,0.0,92,0.00,,OVC090,0.09,VWS V14.00,2013-01-07 00:55:00,
2013-01-06 20:00:00,24.9,22.9,29.91,West,276,0.0,0.0,92,0.00,,,0.09,VWS V14.00,2013-01-07 01:00:00,
2013-01-06 20:05:00,24.9,22.9,29.91,West,276,0.0,0.0,92,0.00,,,0.09,VWS V14.00,2013-01-07 01:05:00,
2013-01-06 20:10:00,24.9,22.9,29.91,West,276,0.0,0.0,92,0.00,,,0.09,VWS V14.00,2013-01-07 01:10:00,
2013-01-06 20:15:00,24.9,22.9,29.91,West,276,0.0,0.0,92,0.00,,,0.09,VWS V14.00,2013-01-07 01:15:00,
2013-01-06 20:20:00,24.9,22.9,29.91,West,276,0.0,0.0,92,0.00,,,0.09,VWS V14.00,2013-01-07 01:20:00,
2013-01-06 20:25:00,25.0,23.3,29.90,West,276,0.0,0.0,93,0.00,,,0.09,VWS V14.00,2013-01-07 01:25:00,
2013-01-06 20:30:00,25.0,23.0,29.90,West,276,0.0,0.0,92,0.00,,,0.09,VWS V14.00,2013-01-07 01:30:00,
2013-01-06 20:35:00,25.0,23.3,29.90,West,276,0.0,0.0,93,0.00,,,0.09,VWS V14.00,2013-01-07 01:35:00,
2013-01-06 20:40:00,25.1,23.1,29.90,West,276,0.0,0.0,92,0.00,,,0.09,VWS V14.00,2013-01-07 01:40:00,
2013-01-06 20:45:00,25.2,23.2,29.90,West,276,0.0,0.0,92,0.00,,,0.09,VWS V14.00,2013-01-07 01:45:00,
2013-01-06 20:50:00,25.4,23.4,29.90,West,276,0.0,0.0,92,0.00,,,0.09,VWS V14.00,2013-01-07 01:50:00,
2013-01-06 20:55:00,25.4,23.4,29.90,West,276,0.0,0.0,92,0.00,,,0.09,VWS V14.00,2013-01-07 01:55:00,
2013-01-06 21:00:00,25.5,23.5,29.90,West,276,0.0,0.0,92,0.00,,,0.09,VWS V14.00,2013-01-07 02:00:00,
2013-01-06 21:05:00,25.6,23.6,29.90,West,276,0.0,0.0,92,0.00,,,0.09,VWS V14.00,2013-01-07 02:05:00,
2013-01-06 21:10:00,25.6,23.6,29.90,West,276,0.0,0.0,92,0.00,,,0.09,VWS V14.00,2013-01-07 02:10:00,
2013-01-06 21:15:00,25.6,23.6,29.90,West,276,0.0,0.0,92,0.00,,,0.09,VWS V14.00,2013-01-07 02:15:00,
2013-01-06 21:20:00,25.5,23.5,29.90,West,276,0.0,0.0,92,0.00,,,0.09,VWS V14.00,2013-01-07 02:20:00,
2013-01-06 21:25:00,25.6,23.6,29.90,West,276,0.0,0.0,92,0.00,,,0.09,VWS V14.00,2013-01-07 02:25:00,
2013-01-06 21:30:00,25.6,23.3,29.90,West,276,0.0,0.0,91,0.00,,,0.09,VWS V14.00,2013-01-07 02:30:00,
2013-01-06 21:35:00,25.6,23.3,29.90,West,276,0.0,0.0,91,0.00,,,0.09,VWS V14.00,2013-01-07 02:35:00,
2013-01-06 21:40:00,25.6,23.3,29.90,West,276,0.0,0.0,91,0.00,,,0.09,VWS V14.00,2013-01-07 02:40:00,
2013-01-06 21:45:00,25.7,23.4,29.90,West,276,0.0,0.0,91,0.00,,,0.09,VWS V14.00,2013-01-07 02:45:00,
2013-01-06 21:50:00,25.8,23.5,29.90,West,276,0.0,0.0,91,0.00,,,0.09,VWS V14.00,2013-01-07 02:50:00,
2013-01-06 21:55:00,25.8,23.5,29.90,West,276,0.0,0.0,91,0.00,,,0.09,VWS V14.00,2013-01-07 02:55:00,
2013-01-06 22:00:00,25.8,23.5,29.90,West,276,0.0,0.0,91,0.00,,,0.09,VWS V14.00,2013-01-07 03:00:00,
2013-01-06 22:05:00,25.8,23.5,29.90,West,276,0.0,0.0,91,0.00,,,0.09,VWS V14.00,2013-01-07 03:05:00,
2013-01-06 22:10:00,25.8,23.5,29.90,West,276,0.0,0.0,91,0.00,,,0.09,VWS V14.00,2013-01-07 03:10:00,
2013-01-06 22:15:00,25.7,23.4,29.90,West,276,0.0,0.0,91,0.00,,,0.09,VWS V14.00,2013-01-07 03:15:00,
2013-01-06 22:20:00,25.6,23.3,29.90,West,276,0.0,0.0,91,0.00,,,0.09,VWS V14.00,2013-01-07 03:20:00,
2013-01-06 22:25:00,25.6,23.3,29.90,West,276,0.0,0.0,91,0.00,,,0.09,VWS V14.00,2013-01-07 03:25:00,
2013-01-06 22:30:00,25.6,23.3,29.90,West,276,0.0,0.0,91,0.00,,,0.09,VWS V14.00,2013-01-07 03:30:00,
2013-01-06 22:35:00,25.6,23.3,29.90,West,276,0.0,0.0,91,0.00,,,0.09,VWS V14.00,2013-01-07 03:35:00,
2013-01-06 22:40:00,25.4,23.1,29.90,West,276,0.0,0.0,91,0.00,,,0.09,VWS V14.00,2013-01-07 03:40:00,
2013-01-06 22:45:00,25.4,23.4,29.90,West,276,0.0,0.0,92,0.00,,,0.09,VWS V14.00,2013-01-07 03:45:00,
2013-01-06 22:50:00,25.3,23.3,29.90,West,276,0.0,0.0,92,0.00,,,0.09,VWS V14.00,2013-01-07 03:50:00,
2013-01-06 22:55:00,25.2,23.2,29.90,West,276,0.0,0.0,92,0.00,,,0.09,VWS V14.00,2013-01-07 03:55:00,
2013-01-06 23:00:00,25.1,23.1,29.90,West,276,0.0,0.0,92,0.00,,OVC034,0.09,VWS V14.00,2013-01-07 04:00:00,
2013-01-06 23:05:00,25.0,23.0,29.90,West,276,0.0,0.0,92,0.00,,OVC034,0.09,VWS V14.00,2013-01-07 04:05:00,
2013-01-06 23:10:00,24.9,22.9,29.90,West,276,0.0,0.0,92,0.00,,OVC034,0.09,VWS V14.00,2013-01-07 04:10:00,
2013-01-06 23:15:00,24.9,22.9,29.90,West,276,0.0,0.0,92,0.00,,OVC034,0.09,VWS V14.00,2013-01-07 04:15:00,
2013-01-06 23:20:00,24.8,23.1,29.90,West,276,0.0,0.0,93,0.00,,OVC034,0.09,VWS V14.00,2013-01-07 04:20:00,
2013-01-06 23:25:00,24.8,23.1,29.90,West,276,0.0,0.0,93,0.00,,OVC034,0.09,VWS V14.00,2013-01-07 04:25:00,
2013-01-06 23:30:00,24.9,23.2,29.90,West,276,0.0,0.0,93,0.00,,OVC034,0.09,VWS V14.00,2013-01-07 04:30:00,
2013-01-06 23:35:00,25.0,23.3,29.90,West,276,0.0,0.0,93,0.00,,OVC034,0.09,VWS V14.00,2013-01-07 04:35:00,
2013-01-06 23:40:00,25.0,23.3,29.90,West,276,0.0,0.0,93,0.00,,OVC034,0.09,VWS V14.00,2013-01-07 04:40:00,
2013-01-06 23:45:00,25.0,23.3,29.90,West,276,0.0,0.0,93,0.00,,OVC034,0.09,VWS V14.00,2013-01-07 04:45:00,
2013-01-06 23:50:00,25.1,23.4,29.90,West,276,0.0,1.0,93,0.00,,OVC034,0.09,VWS V14.00,2013-01-07 04:50:00,
2013-01-06 23:55:00,25.2,23.5,29.90,West,276,0.0,1.0,93,0.00,,OVC034,0.09,VWS V14.00,2013-01-07 04:55:00,